Tiempo atmosférico en la estación meteorológica de Estepona, Málaga (15 m.)



Fecha
DESCASC
Temp. máxima en grados centígrados (hora)
DESCASC
Temp. mínima en grados centígrados (hora)
DESCASC
Temp. media en grados centígrados
DESCASC
Racha de viento máxima en m/sg (hora)
DESCASC
Velocidad máxima media en intervalos de 10 minutos(hora)
DESCASC
Precipitaciones diarias en mm
DESCASC
Precipitaciones de 00:00 a 06:00 en mm
DESCASC
Precipitaciones de 06:00 a 12:00 en mm
DESCASC
Precipitaciones de 12:00 a 18:00 en mm
DESCASC
Precipitaciones de 18:00 a 24:00 en mm
DESCASC
13-10-2019 25.3 (15:10) 18.9 (05:50) 22.1 6.94 (16:50) 4.44 (16:50) 0 0 0 0 0
12-10-2019 27.1 (14:40) 20.2 (23:59) 23.7 5.83 (06:50) 3.06 (11:00) 0 0 0 0 0
11-10-2019 25.2 (13:10) 21.3 (06:20) 23.3 8.61 (08:20) 5.28 (12:20) 0 0 0 0 0
10-10-2019 25.2 (13:40) 18.3 (00:00) 21.8 10.83 (10:30) 6.94 (15:40) 0 0 0 0 0
09-10-2019 25.8 (15:10) 19.8 (00:00) 22.8 5.56 (11:30) 3.33 (11:20) 0 0 0 0 0
08-10-2019 26.2 (14:40) 19.7 (00:00) 23 10.83 (10:30) 6.67 (11:10) 0 0 0 0 0
07-10-2019 27.2 (14:40) 16.8 (00:00) 22 5 (23:20) 2.78 (17:10) 0 0 0 0 0
06-10-2019 25.3 (16:00) 17 (00:00) 21.1 4.17 (14:10) 2.5 (14:10) 0 0 0 0 0
05-10-2019 26 (16:40) 16.4 (00:00) 21.2 5.28 (12:50) 2.78 (11:40) 0 0 0 0 0
04-10-2019 26.8 (16:50) 17.5 (00:00) 22.1 3.89 (06:30) 2.22 (06:30) 0 0 0 0 0
03-10-2019 32.1 (14:40) 16.7 (00:00) 24.4 13.06 (17:50) 6.39 (18:00) 0 0 0 0 0
02-10-2019 29.9 (16:40) 18.8 (00:00) 24.3 17.78 (16:00) 10 (15:40) 0 0 0 0 0
01-10-2019 35.6 (15:50) 18 (00:00) 26.8 12.78 (14:40) 6.11 (17:20) 0 0 0 0 0
30-09-2019 26.8 (15:30) 16.9 (00:00) 21.8 3.89 (15:00) 2.78 (14:50) 0 0 0 0 0
29-09-2019 28.2 (15:40) 18.2 (00:00) 23.2 4.44 (02:10) 1.94 (12:10) 0 0 0 0 0
28-09-2019 25.3 (15:50) 18.7 (00:00) 22 3.89 (11:40) 2.22 (11:40) 0 0 0 0 0
27-09-2019 26.9 (15:20) 20 (00:00) 23.4 3.89 (01:00) 2.22 (01:40) 0 0 0 0 0
26-09-2019 27.2 (15:30) 19 (00:00) 23.1 6.39 (12:30) 4.17 (13:50) 0 0 0 0 0
25-09-2019 -- (--) -- (--) -- 11.67 (16:20) 6.11 (15:10) 0 0 0 0 0
24-09-2019 28.4 (15:10) 17.6 (00:00) 23 4.17 (15:20) 2.78 (15:20) 0 0 0 0 0
23-09-2019 28.1 (15:20) 16.7 (00:00) 22.4 3.89 (14:00) 2.22 (14:00) 0 0 0 0 0
22-09-2019 30.2 (17:30) 20.8 (00:00) 25.5 12.22 (14:20) 6.11 (16:30) 0 0 0 0 0
21-09-2019 28 (14:50) 21.2 (00:00) 24.6 3.89 (13:00) 2.78 (16:00) 0 0 0 0 0
20-09-2019 25.8 (11:00) 21.5 (00:00) 23.6 8.06 (13:50) 5 (13:50) 0 0 0 0 0
19-09-2019 27.5 (12:50) 19.9 (00:00) 23.7 3.61 (16:10) 2.22 (16:00) 0 0 0 0 0
18-09-2019 29.3 (15:10) 20.5 (00:00) 24.9 6.11 (13:00) 3.61 (12:40) 0 0 0 0 0
17-09-2019 28.8 (16:30) 20.6 (00:00) 24.7 5.83 (14:50) 3.89 (14:20) 0 0 0 0 0
16-09-2019 27.4 (14:00) 20.1 (00:00) 23.8 4.72 (11:20) 2.78 (11:20) 0 0 0 0 0

Gráficas

Temp. máximas Temp. mínimas Temp. medias Precipitaciones Rachas de viento máximas Velocidades máximas media en intervalos de 10 minutos

Datos horarios

Fecha y hora oficial Temperatura (ºC) Velocidad del viento (km/h) Dirección del viento Racha (km/h) Dirección de racha Precipitación (mm) Presión (hPa) Tendencia (hPa) Humedad (%)
2019-10-15 23:00:00 16.9 2 Este 6 Noroeste 0 1019.8 1.3 40
2019-10-15 22:00:00 18.2 3 Oeste 15 Nordeste 0 1019.3 0.9 37
2019-10-15 21:00:00 18.8 7 Nordeste 12 Nordeste 0 1018.9 0.5 35
2019-10-15 20:00:00 19.7 2 Nordeste 5 Nordeste 0 1018.5 0 37
2019-10-15 19:00:00 21 3 Sudeste 10 Este 0 1018.4 -0.4 50
2019-10-15 18:00:00 21.5 6 Este 13 Nordeste 0 1018.4 -1 55
2019-10-15 17:00:00 23 4 Sur 9 Sudeste 0 1018.5 -1.6 46
2019-10-15 16:00:00 22.7 4 Sudeste 9 Sur 0 1018.8 -1.8 42
2019-10-15 15:00:00 23.3 5 Sur 13 Sudeste 0 1019.4 -1.3 34
2019-10-15 14:00:00 23.5 6 Sudeste 12 Sudeste 0 1020.1 -0.6 31
2019-10-15 13:00:00 23.1 6 Sur 11 Sudoeste 0 1020.6 0.5 32
2019-10-15 12:00:00 22.4 5 Sur 9 Sur 0 1020.7 1.3 35
2019-10-15 11:00:00 20.5 5 Sudoeste 9 Sudoeste 0 1020.7 1.7 44
2019-10-15 10:00:00 17.1 3 Sudoeste 9 Sudoeste 0 1020.1 0.9 50
2019-10-15 09:00:00 14.6 3 Noroeste 9 Nordeste 0 1019.4 0.3 60
2019-10-15 08:00:00 15.5 3 Norte 8 Oeste 0 1019 0.1 54
2019-10-15 07:00:00 14.7 3 Noroeste 7 Oeste 0 1019.2 0.3 61
2019-10-15 06:00:00 15.2 3 Norte 17 Este 0 1019.1 0.2 59
2019-10-15 05:00:00 16.6 11 Este 23 Este 0 1018.9 0.1 54
2019-10-15 04:00:00 16.2 6 Sudoeste 15 Oeste 0 1018.9 0.2 66
2019-10-15 03:00:00 16.9 6 Oeste 14 Oeste 0 1018.9 -0.1 65
2019-10-15 02:00:00 17.3 6 Oeste 18 Sudoeste 0 1018.8 -0.3 68
2019-10-15 01:00:00 17.5 10 Oeste 30 Sudoeste 0 1018.7 0.1 74
2019-10-15 00:00:00 17.9 17 Sudoeste 27 Sudoeste 0 1019 0.8 76
2019-10-14 23:00:00 18.2 11 Sudoeste 27 Oeste 0.2 1019.1 1.4 73
2019-10-14 22:00:00 19.9 11 Sudoeste 26 Oeste 0 1018.6 1.8 57
2019-10-14 21:00:00 20.7 13 Oeste 30 Oeste 0 1018.2 2 49
2019-10-14 20:00:00 21.1 10 Sudoeste 40 Noroeste 0 1017.7 2 45
2019-10-14 19:00:00 23.1 19 Oeste 45 Oeste 0 1016.8 1.3 32
2019-10-14 18:00:00 24.5 20 Oeste 50 Oeste 0 1016.2 0.6 35
2019-10-14 17:00:00 25.6 19 Oeste 49 Sudoeste 0 1015.7 -0.5 40
2019-10-14 16:00:00 25.5 25 Sudoeste 45 Sudoeste 0 1015.5 -0.7 43
2019-10-14 15:00:00 25.4 24 Oeste 45 Oeste 0 1015.6 -0.5 41
2019-10-14 14:00:00 24.5 22 Oeste 45 Sudoeste 0 1016.2 0.4 44
2019-10-14 13:00:00 24.6 20 Oeste 37 Oeste 0 1016.2 0.9 45
2019-10-14 12:00:00 23.5 15 Oeste 30 Oeste 0 1016.1 1.3 53
2019-10-14 11:00:00 22.3 12 Oeste 35 Oeste 0 1015.8 1.8 60
2019-10-14 10:00:00 21.6 14 Oeste 31 Oeste 0 1015.3 1.1 65
2019-10-14 09:00:00 21.5 19 Oeste 40 Oeste 0 1014.8 0.3 62
2019-10-14 08:00:00 20.6 15 Sudoeste 27 Oeste 0 1014 -0.4 71
2019-10-14 07:00:00 20.6 11 Sudoeste 19 Sudoeste 0 1014.2 1.1 76
2019-10-14 06:00:00 20.8 8 Oeste 17 Oeste 0 1014.5 0.9 77
2019-10-14 05:00:00 20.7 13 Oeste 20 Oeste 0 1014.4 0.5 78
2019-10-14 04:00:00 20.7 4 Noroeste 8 Noroeste 0 1013.1 -1.1 75
2019-10-14 03:00:00 21.1 3 Nordeste 17 Este 0 1013.6 -1.2 75
2019-10-14 02:00:00 21.2 6 Nordeste 24 Nordeste 0 1013.9 -0.4 73
2019-10-14 01:00:00 20.9 10 Nordeste 21 Nordeste 0 1014.2 0.2 79
2019-10-14 00:00:00 20.7 5 Nordeste 12 Nordeste 0 1014.8 1.1 80
2019-10-13 23:00:00 20.5 5 Este 9 Este 0 1014.3 0.5 80
2019-10-13 22:00:00 21 6 Sudeste 14 Este 0 1014 0.4 79
2019-10-13 21:00:00 21.1 6 Este 13 Este 0 1013.7 -0.4 78
2019-10-13 20:00:00 21.4 8 Este 15 Este 0 1013.8 -0.3 77
2019-10-13 19:00:00 22.6 8 Este 19 Este 0 1013.6 -0.7 73
2019-10-13 18:00:00 23.6 9 Este 17 Este 0 1014.1 -0.9 69
2019-10-13 17:00:00 24.2 12 Este 25 Este 0 1014.1 -1.7 65
2019-10-13 16:00:00 24.8 11 Este 20 Este 0 1014.3 -2 62
2019-10-13 15:00:00 25.2 8 Este 15 Este 0 1015 -1.5 64
2019-10-13 14:00:00 24.8 11 Este 20 Este 0 1015.8 -0.7 65
2019-10-13 13:00:00 24.7 10 Este 18 Este 0 1016.3 0.3 64
2019-10-13 12:00:00 24.1 8 Este 16 Este 0 1016.5 1.1 64
2019-10-13 11:00:00 21 6 Este 8 Este 0 1016.5 1.4 82
2019-10-13 10:00:00 20.3 3 Nordeste 5 Nordeste 0 1016 1 84
2019-10-13 09:00:00 19.4 3 Oeste 5 Sudoeste 0 1015.4 0.5 84
2019-10-13 08:00:00 19.3 3 Sudoeste 5 Noroeste 0 1015.1 0.3 83
2019-10-13 07:00:00 19.6 3 Oeste 8 Oeste 0 1015 -0.2 83
2019-10-13 06:00:00 19.1 4 Oeste 7 Oeste 0 1014.9 -0.9 81
2019-10-13 05:00:00 19.5 3 Nordeste 8 Nordeste 0 1014.8 -1.3 80
2019-10-13 04:00:00 19.9 5 Nordeste 10 Nordeste 0 1015.2 -1.1 80
2019-10-13 03:00:00 19.9 4 Nordeste 8 Nordeste 0 1015.8 -0.4 78
2019-10-13 02:00:00 20.2 3 Nordeste 5 Nordeste 0 1016.1 0 79
2019-10-13 01:00:00 19.9 0 Calma 4 Nordeste 0 1016.3 0.5 79
2019-10-13 00:00:00 20.2 3 Este 5 Este 0 1016.2 0.6 78
2019-10-12 23:00:00 20.7 2 Sudeste 6 Oeste 0 1016.1 0.7 76
2019-10-12 22:00:00 21.3 2 Este 7 Este 0 1015.8 0.9 75
2019-10-12 21:00:00 21.8 4 Nordeste 9 Este 0 1015.6 0.6 73
2019-10-12 20:00:00 22.6 3 Nordeste 9 Este 0 1015.4 0.2 69
2019-10-12 19:00:00 23.9 5 Este 9 Este 0 1014.9 -0.5 65
2019-10-12 18:00:00 24.7 4 Este 9 Sudeste 0 1015 -0.8 62
2019-10-12 17:00:00 25.6 5 Este 10 Sudeste 0 1015.2 -1.4 61
2019-10-12 16:00:00 26.4 5 Este 13 Sudeste 0 1015.4 -1.5 56
2019-10-12 15:00:00 27 6 Este 12 Este 0 1015.8 -1.3 54
2019-10-12 14:00:00 26.4 8 Este 17 Este 0 1016.6 0 55
2019-10-12 13:00:00 25.1 10 Este 15 Este 0 1016.9 0.7 61
2019-10-12 12:00:00 25.8 10 Este 16 Este 0 1017.1 1.2 60
2019-10-12 11:00:00 24.8 11 Este 18 Este 0 1016.6 0.9 60
2019-10-12 10:00:00 23.3 7 Nordeste 17 Nordeste 0 1016.2 0.7 64
2019-10-12 09:00:00 22.3 6 Nordeste 18 Nordeste 0 1015.9 0.3 66
2019-10-12 08:00:00 22.2 8 Nordeste 18 Nordeste 0 1015.7 -0.1 66
2019-10-12 07:00:00 22.4 9 Nordeste 21 Nordeste 0 1015.5 -0.6 65
2019-10-12 06:00:00 22.5 8 Nordeste 19 Nordeste 0 1015.6 -1 65
2019-10-12 05:00:00 22.5 5 Nordeste 20 Nordeste 0 1015.8 -1.6 64
2019-10-12 04:00:00 21.9 8 Nordeste 20 Nordeste 0 1016.1 -1.6 67
2019-10-12 03:00:00 21.7 9 Nordeste 19 Nordeste 0 1016.6 -1.3 70
2019-10-12 02:00:00 21.6 5 Nordeste 19 Nordeste 0 1017.4 -0.4 70
2019-10-12 01:00:00 21.6 6 Nordeste 12 Nordeste 0 1017.7 -0.1 71
2019-10-12 00:00:00 21.7 6 Nordeste 16 Nordeste 0 1017.9 0.6 71
2019-10-11 23:00:00 21.8 6 Nordeste 13 Este 0 1017.8 0.6 71
2019-10-11 22:00:00 22.1 7 Este 13 Este 0 1017.8 0.7 71
2019-10-11 21:00:00 22.1 6 Nordeste 17 Nordeste 0 1017.3 0 70
2019-10-11 20:00:00 22.3 9 Nordeste 18 Este 0 1017.2 -0.6 69
2019-10-11 19:00:00 22.8 13 Este 23 Este 0 1017.1 -1.1 68
2019-10-11 18:00:00 23.4 13 Este 21 Nordeste 0 1017.3 -1.5 66
2019-10-11 17:00:00 24.2 11 Este 26 Este 0 1017.8 -1.5 62
2019-10-11 16:00:00 23.9 15 Este 24 Este 0 1018.2 -1.6 64
2019-10-11 15:00:00 24.6 11 Este 20 Este 0 1018.8 -1.1 63
2019-10-11 14:00:00 23.6 12 Este 24 Este 0 1019.3 -0.8 66
2019-10-11 13:00:00 25.1 16 Este 29 Este 0 1019.8 0.4 62
2019-10-11 12:00:00 25.1 19 Este 29 Este 0 1019.9 1.3 59
2019-10-11 11:00:00 23.8 14 Este 24 Nordeste 0 1020.1 1.5 60
2019-10-11 10:00:00 22.6 9 Nordeste 23 Nordeste 0 1019.4 0.7 60
2019-10-11 09:00:00 21.7 11 Nordeste 31 Nordeste 0 1018.6 0.2 64
2019-10-11 08:00:00 21.3 10 Nordeste 24 Nordeste 0 1018.6 0.2 66
2019-10-11 07:00:00 21.3 10 Nordeste 22 Nordeste 0 1018.7 0.2 68
2019-10-11 06:00:00 21.4 10 Nordeste 23 Nordeste 0 1018.4 -0.4 69
2019-10-11 05:00:00 21.5 10 Nordeste 26 Nordeste 0 1018.4 -0.5 67
2019-10-11 04:00:00 21.7 11 Nordeste 24 Este 0 1018.5 -0.5 67
2019-10-11 03:00:00 21.8 9 Nordeste 24 Este 0 1018.8 -0.3 66
2019-10-11 02:00:00 21.6 9 Nordeste 24 Nordeste 0 1018.9 0 66
2019-10-11 01:00:00 21.9 9 Nordeste 21 Nordeste 0 1019 0.4 63
2019-10-11 00:00:00 22.1 10 Nordeste 29 Nordeste 0 1019.1 1 62
2019-10-10 23:00:00 21.8 8 Nordeste 25 Nordeste 0 1018.9 1.2 65
2019-10-10 22:00:00 21.8 9 Nordeste 23 Nordeste 0 1018.6 1.2 68
2019-10-10 21:00:00 21.7 11 Nordeste 27 Este 0 1018.1 0.8 73
2019-10-10 20:00:00 22 17 Este 30 Este 0 1017.7 0.4 74
2019-10-10 19:00:00 22.7 20 Este 35 Este 0 1017.4 -0.2 70
2019-10-10 18:00:00 23.7 21 Este 32 Este 0 1017.3 -0.9 67
2019-10-10 17:00:00 24.2 22 Este 36 Este 0 1017.3 -1.6 64
2019-10-10 16:00:00 24.3 23 Este 38 Este 0 1017.6 -1.6 63
2019-10-10 15:00:00 24.8 24 Este 39 Este 0 1018.2 -1.1 62
2019-10-10 14:00:00 25 23 Este 36 Este 0 1018.9 -0.5 62
2019-10-10 13:00:00 24.7 23 Este 36 Este 0 1019.2 0.6 63
2019-10-10 12:00:00 24.7 21 Este 32 Este 0 1019.3 1.6 62
2019-10-10 11:00:00 24.2 21 Este 39 Este 0 1019.4 2.4 63
2019-10-10 10:00:00 23.3 16 Nordeste 29 Nordeste 0 1018.6 2.1 55
2019-10-10 09:00:00 21.3 9 Nordeste 21 Nordeste 0 1017.7 1.4 46
2019-10-10 08:00:00 19 7 Nordeste 17 Este 0 1017 0.8 56
2019-10-10 07:00:00 19.1 8 Nordeste 15 Este 0 1016.5 0.2 64
2019-10-10 06:00:00 18.8 6 Nordeste 21 Norte 0 1016.3 0.3 59
2019-10-10 05:00:00 19.5 10 Nordeste 20 Nordeste 0 1016.2 -0.1 64
2019-10-10 04:00:00 18.9 6 Nordeste 12 Este 0 1016.3 -0.1 71
2019-10-10 03:00:00 19 7 Nordeste 13 Nordeste 0 1016 -0.4 73
2019-10-10 02:00:00 19.1 6 Nordeste 13 Nordeste 0 1016.3 0.3 79
2019-10-10 01:00:00 19.4 0 Calma 5 Norte 0 1016.4 0.7 81
2019-10-10 00:00:00 19.8 2 Nordeste 5 Nordeste 0 1016.4 1 81
2019-10-09 23:00:00 20.1 3 Nordeste 5 Nordeste 0 1016 0.9 80
2019-10-09 22:00:00 20.6 2 Sudoeste 5 Sudoeste 0 1015.7 0.9 78
2019-10-09 21:00:00 21.2 3 Sudoeste 6 Oeste 0 1015.4 0.5 75
2019-10-09 20:00:00 22.4 4 Sudoeste 8 Oeste 0 1015.1 -0.3 73
2019-10-09 19:00:00 23.4 3 Sudeste 8 Sudeste 0 1014.8 -0.6 69
2019-10-09 18:00:00 24.1 4 Este 9 Sudeste 0 1014.9 -0.8 65
2019-10-09 17:00:00 24.6 5 Sudeste 13 Este 0 1015.4 -0.8 62
2019-10-09 16:00:00 25.3 7 Este 14 Sudeste 0 1015.4 -1.2 61
2019-10-09 15:00:00 25.7 8 Este 15 Sudeste 0 1015.7 -1.4 60
2019-10-09 14:00:00 25.5 8 Este 17 Este 0 1016.2 -0.6 60
2019-10-09 13:00:00 25.4 8 Este 15 Este 0 1016.6 0.2 58
2019-10-09 12:00:00 24.6 10 Este 20 Este 0 1017.1 1.1 55
2019-10-09 11:00:00 24.1 11 Este 17 Este 0 1016.8 1.2 47
2019-10-09 10:00:00 23.7 9 Este 15 Nordeste 0 1016.4 0.8 46
2019-10-09 09:00:00 21.5 6 Nordeste 14 Nordeste 0 1016 0.9 43
2019-10-09 08:00:00 21.1 8 Nordeste 16 Nordeste 0 1015.6 0.3 44
2019-10-09 07:00:00 20.9 6 Nordeste 14 Norte 0 1015.6 0 46
2019-10-09 06:00:00 20.9 6 Nordeste 14 Norte 0 1015.1 -1.4 50
2019-10-09 05:00:00 21.1 7 Nordeste 16 Nordeste 0 1015.3 -1.3 56
2019-10-09 04:00:00 21.2 7 Nordeste 13 Nordeste 0 1015.6 -1.2 51
2019-10-09 03:00:00 21.3 7 Nordeste 15 Norte 0 1016.5 -0.7 55
2019-10-09 02:00:00 21.1 6 Nordeste 18 Este 0 1016.6 -0.5 57
2019-10-09 01:00:00 20.9 7 Nordeste 14 Este 0 1016.8 -0.2 63
2019-10-09 00:00:00 22 7 Nordeste 18 Nordeste 0 1017.2 0.3 62
2019-10-08 23:00:00 22.7 8 Nordeste 17 Nordeste 0 1017.1 0.6 57
2019-10-08 22:00:00 22.6 9 Nordeste 16 Nordeste 0 1017 0.4 57
2019-10-08 21:00:00 22.6 6 Nordeste 18 Este 0 1016.9 0.2 57
2019-10-08 20:00:00 23 9 Nordeste 21 Este 0 1016.5 -0.2 57
2019-10-08 19:00:00 24.3 11 Nordeste 27 Nordeste 0 1016.6 -0.7 59
2019-10-08 18:00:00 25.1 14 Este 29 Este 0 1016.7 -1.1 58
2019-10-08 17:00:00 25.8 17 Este 30 Nordeste 0 1016.7 -2 59
2019-10-08 16:00:00 25.6 15 Este 25 Este 0 1017.3 -1.8 61
2019-10-08 15:00:00 26 15 Este 27 Nordeste 0 1017.8 -1.3 58
2019-10-08 14:00:00 25.1 18 Este 32 Este 0 1018.7 -0.1 58
2019-10-08 13:00:00 24.8 23 Este 36 Este 0 1019.1 0.9 56
2019-10-08 12:00:00 23.8 21 Este 35 Este 0 1019.1 1.5 65
2019-10-08 11:00:00 24.4 20 Este 39 Nordeste 0 1018.8 1.9 61
2019-10-08 10:00:00 23.8 17 Nordeste 31 Nordeste 0 1018.2 1.7 56
2019-10-08 09:00:00 21.5 11 Nordeste 25 Nordeste 0 1017.6 1.2 64
2019-10-08 08:00:00 21.2 10 Nordeste 26 Nordeste 0 1016.9 0.8 59
2019-10-08 07:00:00 20.9 9 Nordeste 21 Este 0 1016.5 0.3 59
2019-10-08 06:00:00 20.3 7 Nordeste 13 Este 0 1016.4 0.2 64
2019-10-08 05:00:00 21.8 9 Nordeste 26 Nordeste 0 1016.1 0.8 60
2019-10-08 04:00:00 21.1 9 Nordeste 19 Este 0 1016.2 0.9 56
2019-10-08 03:00:00 20.6 8 Nordeste 22 Este 0 1016.2 1.1 69
2019-10-08 02:00:00 20.6 9 Nordeste 21 Nordeste 0 1015.3 0.1 69
2019-10-08 01:00:00 20.8 8 Nordeste 20 Nordeste 0 1015.3 0.5 65
2019-10-08 00:00:00 21.5 6 Nordeste 18 Nordeste 0 1015.1 0.9 64
2019-10-07 23:00:00 21 6 Nordeste 14 Este 0 1015.2 1.2 71
2019-10-07 22:00:00 21.3 6 Nordeste 15 Nordeste 0 1014.8 0.9 71
2019-10-07 21:00:00 21.4 6 Nordeste 9 Este 0 1014.2 0.3 66
2019-10-07 20:00:00 22.4 3 Sudeste 12 Este 0 1014 0.1 62
2019-10-07 19:00:00 23.9 7 Nordeste 15 Este 0 1013.9 -0.3 59
2019-10-07 18:00:00 25.3 9 Este 15 Este 0 1013.9 -0.7 54
2019-10-07 17:00:00 25.5 9 Este 15 Este 0 1013.9 -1.3 52
2019-10-07 16:00:00 25.6 8 Este 14 Este 0 1014.2 -1.4 55
2019-10-07 15:00:00 27 4 Este 8 Sudeste 0 1014.6 -1.1 39
2019-10-07 14:00:00 25.5 3 Sudeste 9 Sudeste 0 1015.2 -0.7 46
2019-10-07 13:00:00 24.9 4 Sur 9 Sur 0 1015.6 0.1 53
2019-10-07 12:00:00 24.8 3 Sur 9 Sudeste 0 1015.7 0.5 50
2019-10-07 11:00:00 22.8 4 Este 6 Este 0 1015.9 1 57
2019-10-07 10:00:00 19.9 2 Sudeste 7 Sur 0 1015.5 0.8 69
2019-10-07 09:00:00 17.7 0 Calma 5 Noroeste 0 1015.2 0.6 80
2019-10-07 08:00:00 16.9 3 Nordeste 6 Norte 0 1014.9 0.1 77
2019-10-07 07:00:00 17.1 3 Norte 6 Norte 0 1014.7 -0.7 77
2019-10-07 06:00:00 17.5 3 Oeste 6 Noroeste 0 1014.6 -1.5 78
2019-10-07 05:00:00 17.8 3 Oeste 5 Noroeste 0 1014.8 -1.3 78
2019-10-07 04:00:00 18.1 3 Norte 6 Oeste 0 1015.4 -1.4 78
2019-10-07 03:00:00 18.6 2 Norte 7 Este 0 1016.1 -0.6 76
2019-10-07 02:00:00 19.3 3 Noroeste 6 Norte 0 1016.1 -0.4 73
2019-10-07 01:00:00 19.8 3 Norte 15 Norte 0 1016.8 0.7 75
2019-10-07 00:00:00 19.5 5 Nordeste 13 Nordeste 0 1016.7 1 73
2019-10-06 23:00:00 19.9 5 Este 9 Este 0 1016.5 0.8 75
2019-10-06 22:00:00 20.4 3 Oeste 5 Sudoeste 0 1016.1 0.5 74
2019-10-06 21:00:00 21.1 3 Sudoeste 7 Nordeste 0 1015.7 0 73
2019-10-06 20:00:00 21.8 4 Nordeste 10 Este 0 1015.7 -0.4 70
2019-10-06 19:00:00 23.7 6 Este 9 Este 0 1015.6 -0.9 63
2019-10-06 18:00:00 24.1 7 Este 13 Este 0 1015.7 -1.3 61
2019-10-06 17:00:00 24 7 Este 14 Este 0 1016.1 -1.5 62
2019-10-06 16:00:00 25.1 7 Este 14 Este 0 1016.5 -1.3 56
2019-10-06 15:00:00 22.9 6 Este 15 Este 0 1017 -0.9 65
2019-10-06 14:00:00 21.8 7 Este 12 Este 0 1017.6 0 70
2019-10-06 13:00:00 21.4 5 Sudeste 12 Este 0 1017.8 0.5 70
2019-10-06 12:00:00 20.7 5 Este 10 Sudeste 0 1017.9 1.3 74
2019-10-06 11:00:00 20 3 Sudeste 7 Sudeste 0 1017.6 1.4 76
2019-10-06 10:00:00 19.5 3 Sur 8 Sudoeste 0 1017.3 1.6 76
2019-10-06 09:00:00 18.2 3 Este 9 Nordeste 0 1016.6 1.4 76
2019-10-06 08:00:00 17.7 3 Norte 8 Nordeste 0 1016.2 1.2 72
2019-10-06 07:00:00 17.7 2 Oeste 10 Nordeste 0 1015.7 0.5 67
2019-10-06 06:00:00 17.3 5 Nordeste 9 Nordeste 0 1015.2 -0.1 73
2019-10-06 05:00:00 17.4 0 Calma 4 Este 0 1015 0 76
2019-10-06 04:00:00 17.9 2 Oeste 5 Nordeste 0 1015.2 0.2 77
2019-10-06 03:00:00 18.5 4 Nordeste 5 Nordeste 0 1015.3 0.3 77
2019-10-06 02:00:00 18.6 2 Sur 5 Noroeste 0 1015 0 74
2019-10-06 01:00:00 19.4 4 Oeste 5 Oeste 0 1015 0.4 72
2019-10-06 00:00:00 19.5 3 Este 4 Nordeste 0 1015 1 74
2019-10-05 23:00:00 19.8 2 Oeste 4 Nordeste 0 1015 1.2 73
2019-10-05 22:00:00 20.4 2 Sudeste 6 Este 0 1014.6 1.1 73
2019-10-05 21:00:00 21.1 2 Norte 7 Este 0 1014 0.5 70
2019-10-05 20:00:00 22.2 4 Nordeste 13 Nordeste 0 1013.8 0.3 65
2019-10-05 19:00:00 24.1 5 Nordeste 14 Este 0 1013.5 -0.3 59
2019-10-05 18:00:00 24 6 Nordeste 17 Este 0 1013.5 -0.7 59
2019-10-05 17:00:00 25 7 Este 14 Este 0 1013.5 -1.2 55
2019-10-05 16:00:00 24.7 8 Este 15 Este 0 1013.8 -1.1 55
2019-10-05 15:00:00 24.7 7 Este 17 Este 0 1014.2 -0.7 58
2019-10-05 14:00:00 24.6 8 Este 16 Este 0 1014.7 -0.1 60
2019-10-05 13:00:00 25.1 9 Este 19 Nordeste 0 1014.9 0.5 55
2019-10-05 12:00:00 23.7 9 Este 16 Este 0 1014.9 0.9 54
2019-10-05 11:00:00 22 8 Este 14 Este 0 1014.8 1.1 63
2019-10-05 10:00:00 20.1 2 Sudeste 8 Sur 0 1014.4 1 67
2019-10-05 09:00:00 17.2 0 Calma 4 Nordeste 0 1014 0.4 77
2019-10-05 08:00:00 16.6 0 Calma 5 Sudoeste 0 1013.7 0.2 78
2019-10-05 07:00:00 16.7 2 Sudoeste 3 Sudoeste 0 1013.4 -0.4 76
2019-10-05 06:00:00 16.9 0 Calma 3 Noroeste 0 1013.6 -0.6 75
2019-10-05 05:00:00 17.4 2 Norte 9 Oeste 0 1013.5 -0.9 74
2019-10-05 04:00:00 17.6 0 Calma 3 Oeste 0 1013.8 -0.8 74
2019-10-05 03:00:00 17.6 0 Calma 5 Nordeste 0 1014.2 -0.7 73
2019-10-05 02:00:00 18 2 Oeste 4 Sudoeste 0 1014.4 -0.6 75
2019-10-05 01:00:00 18.4 3 Sudoeste 5 Este 0 1014.6 -0.3 74
2019-10-05 00:00:00 18 4 Este 6 Nordeste 0 1014.9 0.1 76
2019-10-04 23:00:00 19.9 5 Este 8 Este 0 1015 0.4 79
2019-10-04 22:00:00 20.4 4 Sudoeste 7 Sudoeste 0 1014.9 0.4 75
2019-10-04 21:00:00 20.9 4 Nordeste 9 Este 0 1014.8 0.1 73
2019-10-04 20:00:00 21.9 6 Nordeste 10 Nordeste 0 1014.6 -0.3 68
2019-10-04 19:00:00 23.8 6 Este 12 Este 0 1014.5 -0.8 55
2019-10-04 18:00:00 25.4 5 Este 8 Este 0 1014.7 -1.2 40
2019-10-04 17:00:00 26.6 4 Este 9 Sur 0 1014.9 -1.9 32
2019-10-04 16:00:00 26.4 4 Sudeste 9 Sudeste 0 1015.3 -1.7 41
2019-10-04 15:00:00 25.4 5 Sudeste 10 Sudeste 0 1015.9 -1.2 40
2019-10-04 14:00:00 25.5 4 Sudeste 10 Este 0 1016.8 -0.1 35
2019-10-04 13:00:00 25.6 3 Sur 9 Sur 0 1017 0.3 34
2019-10-04 12:00:00 25.4 3 Sudoeste 8 Sur 0 1017.1 0.8 36
2019-10-04 11:00:00 23.2 4 Sudoeste 6 Sudoeste 0 1016.9 1 44
2019-10-04 10:00:00 22.2 0 Calma 6 Sudeste 0 1016.7 1.1 50
2019-10-04 09:00:00 20.7 2 Noroeste 7 Noroeste 0 1016.3 0.9 47
2019-10-04 08:00:00 19.9 2 Noroeste 9 Nordeste 0 1015.9 0.7 47
2019-10-04 07:00:00 19 2 Noroeste 14 Nordeste 0 1015.6 0.2 41
2019-10-04 06:00:00 18.1 4 Nordeste 11 Nordeste 0 1015.4 -0.4 48
2019-10-04 05:00:00 18 0 Calma 4 Este 0 1015.2 -0.7 58
2019-10-04 04:00:00 18.3 0 Calma 5 Nordeste 0 1015.4 -0.8 52
2019-10-04 03:00:00 19.3 3 Oeste 5 Oeste 0 1015.8 -0.6 51
2019-10-04 02:00:00 19.8 0 Calma 11 Nordeste 0 1015.9 -0.3 49
2019-10-04 01:00:00 20.3 4 Nordeste 10 Este 0 1016.2 0 58
2019-10-04 00:00:00 21.7 4 Este 9 Oeste 0 1016.4 0.6 45
2019-10-03 23:00:00 22 3 Este 9 Norte 0 1016.2 0.7 51
2019-10-03 22:00:00 22.2 3 Nordeste 15 Oeste 0 1016.2 1 55
2019-10-03 21:00:00 24.9 6 Oeste 28 Oeste 0 1015.8 0.5 29
2019-10-03 20:00:00 26.4 14 Oeste 36 Oeste 0 1015.5 0.4 27
2019-10-03 19:00:00 28.6 19 Oeste 43 Oeste 0 1015.2 -0.1 24
2019-10-03 18:00:00 30.1 23 Oeste 47 Oeste 0 1015.3 -0.4 25
2019-10-03 17:00:00 31.4 19 Oeste 46 Oeste 0 1015.1 -1.6 23
2019-10-03 16:00:00 31.8 20 Oeste 45 Oeste 0 1015.3 -1.9 24
2019-10-03 15:00:00 31.7 21 Oeste 43 Sudoeste 0 1015.7 -2.2 22
2019-10-03 14:00:00 30.5 19 Sudoeste 34 Oeste 0 1016.7 -1.3 28
2019-10-03 13:00:00 29.3 16 Oeste 40 Oeste 0 1017.2 -0.2 30
2019-10-03 12:00:00 27.5 15 Sudoeste 28 Oeste 0 1017.9 1 33
2019-10-03 11:00:00 24.8 10 Oeste 23 Oeste 0 1018 1.3 40
2019-10-03 10:00:00 21.2 8 Oeste 18 Oeste 0 1017.4 1 43
2019-10-03 09:00:00 18.2 4 Oeste 9 Noroeste 0 1016.9 0.8 47
2019-10-03 08:00:00 17.3 3 Oeste 9 Noroeste 0 1016.7 0.8 53
2019-10-03 07:00:00 17.7 4 Este 6 Este 0 1016.4 0.5 58
2019-10-03 06:00:00 18 3 Norte 5 Norte 0 1016.1 0.1 57
2019-10-03 05:00:00 18.4 0 Calma 10 Nordeste 0 1015.9 -0.1 48
2019-10-03 04:00:00 19.1 8 Nordeste 13 Nordeste 0 1015.9 -0.1 48
2019-10-03 03:00:00 20.1 4 Sudoeste 7 Oeste 0 1016 -0.1 44
2019-10-03 02:00:00 21.7 4 Nordeste 11 Este 0 1016 0.2 37
2019-10-03 01:00:00 22.4 3 Este 22 Oeste 0 1016 0.8 35
2019-10-03 00:00:00 23.8 5 Este 25 Oeste 0 1016.1 0.9 29
2019-10-02 23:00:00 24.1 7 Oeste 29 Oeste 0 1015.8 1 26
2019-10-02 22:00:00 23.7 13 Oeste 28 Oeste 0 1015.2 0.8 31
2019-10-02 21:00:00 23.5 9 Oeste 26 Oeste 0 1015.2 1.3 33
2019-10-02 20:00:00 24.5 11 Oeste 48 Oeste 0 1014.8 0.9 30
2019-10-02 19:00:00 27 22 Oeste 50 Oeste 0 1014.4 0.2 25
2019-10-02 18:00:00 28.6 22 Oeste 54 Oeste 0 1013.9 -0.4 21
2019-10-02 17:00:00 29.8 26 Oeste 57 Sudoeste 0 1013.9 -0.5 15
2019-10-02 16:00:00 29.2 32 Sudoeste 64 Oeste 0 1014.2 -0.4 19
2019-10-02 15:00:00 29.4 33 Oeste 62 Oeste 0 1014.3 -0.9 23
2019-10-02 14:00:00 29.2 29 Oeste 58 Oeste 0 1014.4 -1.1 24
2019-10-02 13:00:00 29.6 18 Oeste 37 Sudoeste 0 1014.6 -0.6 24
2019-10-02 12:00:00 28 6 Este 17 Este 0 1015.2 0.3 32
2019-10-02 11:00:00 26.3 6 Este 13 Este 0 1015.5 0.8 34
2019-10-02 10:00:00 22.4 4 Este 8 Nordeste 0 1015.2 0.8 51
2019-10-02 09:00:00 19.4 3 Noroeste 7 Sudoeste 0 1014.9 0.5 59
2019-10-02 08:00:00 19.1 4 Nordeste 9 Sudoeste 0 1014.7 0.5 57
2019-10-02 07:00:00 19.6 2 Noroeste 10 Sudoeste 0 1014.4 0.1 54
2019-10-02 06:00:00 20.5 3 Norte 8 Oeste 0 1014.4 -0.4 50
2019-10-02 05:00:00 21.5 3 Noroeste 13 Sudoeste 0 1014.2 -0.6 50
2019-10-02 04:00:00 21.7 4 Oeste 17 Oeste 0 1014.3 -0.7 53
2019-10-02 03:00:00 22.8 10 Oeste 22 Oeste 0 1014.8 -0.2 47
2019-10-02 02:00:00 23.2 12 Oeste 25 Oeste 0 1014.8 0.3 46
2019-10-02 01:00:00 24.1 10 Oeste 25 Oeste 0 1015 1.2 44
2019-10-02 00:00:00 24.6 14 Sudoeste 25 Oeste 0 1015 1.5 46
2019-10-01 23:00:00 25.9 9 Sudoeste 33 Oeste 0 1014.5 1.6 39
2019-10-01 22:00:00 27.1 14 Oeste 39 Oeste 0 1013.8 1.4 35
2019-10-01 21:00:00 27.8 15 Oeste 31 Noroeste 0 1013.5 1.3 33
2019-10-01 20:00:00 29.1 19 Oeste 43 Oeste 0 1012.9 0.8 30
2019-10-01 19:00:00 32.2 16 Oeste 43 Oeste 0 1012.4 0.3 21
2019-10-01 18:00:00 34.1 13 Oeste 44 Oeste 0 1012.2 -0.2 10
2019-10-01 17:00:00 34.7 20 Oeste 41 Oeste 0 1012.1 -0.5 12
2019-10-01 16:00:00 -- 18 Oeste 41 Oeste 0 1012.1 -1.1 7
2019-10-01 15:00:00 -- 18 Oeste 46 Oeste 0 1012.4 -1.6 8
2019-10-01 14:00:00 34 21 Oeste 43 Oeste 0 1012.6 -1.6 10
2019-10-01 13:00:00 27 9 Nordeste 19 Este 0 1013.2 -0.5 47
2019-10-01 12:00:00 24.8 8 Este 18 Este 0 1014 0.7 60
2019-10-01 11:00:00 23.3 6 Este 11 Nordeste 0 1014.2 1.1 62
2019-10-01 10:00:00 20.5 4 Sudoeste 7 Sudoeste 0 1013.7 0.5 62
2019-10-01 09:00:00 19 2 Oeste 4 Oeste 0 1013.3 0.4 61
2019-10-01 08:00:00 19.2 2 Norte 6 Nordeste 0 1013.1 0.4 56
2019-10-01 07:00:00 19.1 2 Noroeste 7 Nordeste 0 1013.2 0.1 49
2019-10-01 06:00:00 18.1 4 Nordeste 6 Nordeste 0 1012.9 -0.8 47
2019-10-01 05:00:00 18.3 0 Calma 3 Oeste 0 1012.7 -1.1 44
2019-10-01 04:00:00 18.3 0 Calma 4 Oeste 0 1013.1 -0.8 44
2019-10-01 03:00:00 18.5 0 Calma 4 Oeste 0 1013.7 -0.4 49
2019-10-01 02:00:00 19 0 Calma 6 Noroeste 0 1013.8 -0.3 46
2019-10-01 01:00:00 19.6 0 Calma 5 Norte 0 1013.9 -0.1 42
2019-10-01 00:00:00 19.9 0 Calma 5 Noroeste 0 1014.1 0.3 39
2019-09-30 23:00:00 20.1 0 Calma 4 Noroeste 0 1014.1 0.3 42
2019-09-30 22:00:00 21.2 0 Calma 4 Norte 0 1014 0.3 39
2019-09-30 21:00:00 22.5 4 Oeste 7 Oeste 0 1013.8 -0.2 36
2019-09-30 20:00:00 23.7 5 Oeste 11 Oeste 0 1013.8 -0.6 42
2019-09-30 19:00:00 25 4 Sudoeste 13 Oeste 0 1013.7 -0.9 55
2019-09-30 18:00:00 25.8 6 Sudoeste 10 Sudoeste 0 1014 -1.5 51
2019-09-30 17:00:00 26.2 6 Sudoeste 10 Sudoeste 0 1014.4 -1.7 43
2019-09-30 16:00:00 25.7 4 Sudeste 12 Oeste 0 1014.6 -1.9 42
2019-09-30 15:00:00 26.3 8 Sudoeste 14 Sudoeste 0 1015.5 -1.3 53
2019-09-30 14:00:00 25.8 6 Sur 13 Sur 0 1016.1 -0.6 55
2019-09-30 13:00:00 25.3 4 Sur 10 Sur 0 1016.5 0 58
2019-09-30 12:00:00 24.8 4 Sur 9 Sur 0 1016.8 0.9 63
2019-09-30 11:00:00 23 4 Sudoeste 8 Sur 0 1016.7 1 67
2019-09-30 10:00:00 20 4 Sudoeste 6 Sudoeste 0 1016.5 1 81
2019-09-30 09:00:00 17.8 0 Calma 5 Norte 0 1015.9 0.6 84
2019-09-30 08:00:00 16.9 2 Noroeste 4 Noroeste 0 1015.7 0.4 85
2019-09-30 07:00:00 17.2 2 Noroeste 6 Nordeste 0 1015.5 -0.4 85
2019-09-30 06:00:00 17.4 0 Calma 4 Oeste 0 1015.3 -1.1 85
2019-09-30 05:00:00 18.2 0 Calma 4 Noroeste 0 1015.3 -1.4 85
2019-09-30 04:00:00 18.5 3 Oeste 5 Nordeste 0 1015.9 -1.1 84
2019-09-30 03:00:00 18.8 2 Oeste 4 Oeste 0 1016.4 -0.5 83
2019-09-30 02:00:00 19 2 Oeste 3 Oeste 0 1016.7 -0.3 83
2019-09-30 01:00:00 19.4 0 Calma 3 Este 0 1017 0.1 82
2019-09-30 00:00:00 20.1 2 Sudeste 6 Sudoeste 0 1016.9 0.6 81
2019-09-29 23:00:00 20.3 4 Sudoeste 7 Sudoeste 0 1017 0.8 79
2019-09-29 22:00:00 21.1 5 Sudoeste 8 Oeste 0 1016.9 0.7 77
2019-09-29 21:00:00 22 5 Sudoeste 6 Oeste 0 1016.3 -0.2 73
2019-09-29 20:00:00 23.7 4 Sudoeste 9 Sudoeste 0 1016.2 -0.9 67
2019-09-29 19:00:00 25.8 5 Sudoeste 10 Oeste 0 1016.2 -1.3 60
2019-09-29 18:00:00 27 5 Sudoeste 10 Sudoeste 0 1016.5 -1.4 55
2019-09-29 17:00:00 27.6 5 Sudoeste 11 Sudoeste 0 1017.1 -1.6 54
2019-09-29 16:00:00 27.7 4 Sudoeste 9 Sudoeste 0 1017.5 -1.4 53
2019-09-29 15:00:00 27.2 3 Sur 10 Sudeste 0 1017.9 -1.2 54
2019-09-29 14:00:00 26.2 5 Este 12 Este 0 1018.7 -0.2 58
2019-09-29 13:00:00 26.3 6 Este 12 Este 0 1018.9 0.5 59
2019-09-29 12:00:00 25.9 6 Este 10 Este 0 1019.1 1.3 60
2019-09-29 11:00:00 23.8 4 Este 9 Sudeste 0 1018.9 1.5 67
2019-09-29 10:00:00 20.9 3 Sudeste 6 Este 0 1018.4 1.3 79
2019-09-29 09:00:00 19.6 2 Noroeste 7 Oeste 0 1017.8 0.8 82
2019-09-29 08:00:00 19.6 3 Oeste 9 Oeste 0 1017.4 0.1 82
2019-09-29 07:00:00 19.7 4 Oeste 9 Noroeste 0 1017.1 -0.9 81
2019-09-29 06:00:00 18.5 3 Nordeste 10 Este 0 1017 -1.3 79
2019-09-29 05:00:00 19.2 5 Nordeste 13 Nordeste 0 1017.3 -0.8 80
2019-09-29 04:00:00 19.8 5 Nordeste 10 Nordeste 0 1018 -0.5 81
2019-09-29 03:00:00 20 5 Nordeste 16 Este 0 1018.3 0 81
2019-09-29 02:00:00 20.1 5 Nordeste 12 Nordeste 0 1018.1 -0.2 81
2019-09-29 01:00:00 19.8 3 Este 5 Este 0 1018.5 0.6 81
2019-09-29 00:00:00 19.9 2 Nordeste 5 Nordeste 0 1018.3 1 80
2019-09-28 23:00:00 20.3 3 Nordeste 6 Este 0 1018.3 1 80
2019-09-28 22:00:00 20.9 3 Nordeste 6 Nordeste 0 1017.9 0.8 79
2019-09-28 21:00:00 21.5 4 Este 6 Este 0 1017.3 0.2 77
2019-09-28 20:00:00 22.7 2 Este 6 Sudoeste 0 1017.3 0 71
2019-09-28 19:00:00 24.3 3 Sudoeste 7 Sudoeste 0 1017.1 -0.7 66
2019-09-28 18:00:00 24.4 4 Sudeste 10 Sudeste 0 1017.1 -1 66
2019-09-28 17:00:00 24.6 6 Sudeste 11 Sudeste 0 1017.3 -1.5 63
2019-09-28 16:00:00 24.8 6 Sudeste 12 Sudeste 0 1017.8 -1.4 62
2019-09-28 15:00:00 24.9 5 Sudeste 11 Sudeste 0 1018.1 -1.2 61
2019-09-28 14:00:00 25 5 Sudeste 13 Sudeste 0 1018.8 -0.2 61
2019-09-28 13:00:00 24.4 6 Sudeste 13 Este 0 1019.2 0.9 63
2019-09-28 12:00:00 23.3 6 Sudeste 14 Este 0 1019.3 1.5 68
2019-09-28 11:00:00 21 5 Este 12 Este 0 1019 1.8 78
2019-09-28 10:00:00 20.4 6 Sudeste 9 Este 0 1018.3 1.4 81
2019-09-28 09:00:00 20.1 3 Este 9 Este 0 1017.8 1 82
2019-09-28 08:00:00 20.1 5 Este 11 Nordeste 0 1017.2 0.7 83
2019-09-28 07:00:00 20.2 4 Este 9 Este 0 1016.9 0.1 83
2019-09-28 06:00:00 20 4 Nordeste 9 Nordeste 0 1016.8 -0.3 82
2019-09-28 05:00:00 18.8 3 Nordeste 6 Sudoeste 0 1016.5 -0.9 80
2019-09-28 04:00:00 19.3 0 Calma 5 Norte 0 1016.8 -0.9 80
2019-09-28 03:00:00 19.5 4 Nordeste 8 Nordeste 0 1017.1 -0.5 80
2019-09-28 02:00:00 19.6 3 Este 6 Este 0 1017.4 -0.2 79
2019-09-28 01:00:00 19.9 3 Nordeste 6 Nordeste 0 1017.7 0.5 79
2019-09-28 00:00:00 20.2 3 Nordeste 5 Nordeste 0 1017.6 0.7 78
2019-09-27 23:00:00 20.7 0 Calma 10 Oeste 0 1017.6 1 77
2019-09-27 22:00:00 21.2 7 Sudoeste 12 Sudoeste 0 1017.2 0.7 76
2019-09-27 21:00:00 22 7 Sudoeste 11 Sudoeste 0 1016.9 0.5 73
2019-09-27 20:00:00 23.6 6 Sudoeste 9 Oeste 0 1016.6 0.1 67
2019-09-27 19:00:00 25.3 4 Sudoeste 8 Sudoeste 0 1016.5 -0.6 61
2019-09-27 18:00:00 25.1 5 Sur 9 Sur 0 1016.4 -1.4 62
2019-09-27 17:00:00 25.3 5 Sudeste 11 Sudeste 0 1016.5 -1.9 60
2019-09-27 16:00:00 26.7 5 Sur 11 Sur 0 1017.1 -1.7 56
2019-09-27 15:00:00 26.7 5 Sur 12 Sudeste 0 1017.8 -1.3 55
2019-09-27 14:00:00 26.4 5 Sur 11 Sur 0 1018.4 -0.5 56
2019-09-27 13:00:00 26.1 4 Sur 10 Sur 0 1018.8 0.2 58
2019-09-27 12:00:00 25.5 4 Sur 10 Sur 0 1019.1 0.8 61
2019-09-27 11:00:00 23.7 4 Sudoeste 12 Oeste 0 1018.9 1 68
2019-09-27 10:00:00 21 3 Sudoeste 9 Sudoeste 0 1018.6 0.9 77
2019-09-27 09:00:00 20.4 5 Oeste 11 Oeste 0 1018.3 0.7 80
2019-09-27 08:00:00 20 5 Oeste 9 Oeste 0 1017.9 0.4 81
2019-09-27 07:00:00 20.1 4 Sudoeste 7 Oeste 0 1017.7 -0.1 82
2019-09-27 06:00:00 20.4 3 Oeste 7 Sudoeste 0 1017.6 -0.5 82
2019-09-27 05:00:00 20.7 3 Oeste 8 Sudoeste 0 1017.5 -0.8 82
2019-09-27 04:00:00 20.9 2 Sudoeste 9 Nordeste 0 1017.8 -0.7 81
2019-09-27 03:00:00 21.5 5 Este 14 Nordeste 0 1018.1 -0.4 81
2019-09-27 02:00:00 21.7 7 Nordeste 13 Este 0 1018.3 0.1 81
2019-09-27 01:00:00 21.7 6 Nordeste 14 Nordeste 0 1018.5 0.8 81
2019-09-27 00:00:00 21.4 4 Nordeste 8 Nordeste 0 1018.5 1.5 80
2019-09-26 23:00:00 21.4 3 Nordeste 5 Este 0 1018.2 1.4 79
2019-09-26 22:00:00 21.9 0 Calma 6 Este 0 1017.7 1 78
2019-09-26 21:00:00 22.5 3 Este 8 Nordeste 0 1017 0.3 76
2019-09-26 20:00:00 23.3 5 Nordeste 14 Este 0 1016.8 -0.1 72
2019-09-26 19:00:00 24.6 10 Este 17 Este 0 1016.7 -0.7 68
2019-09-26 18:00:00 25.6 11 Este 16 Nordeste 0 1016.7 -0.9 64
2019-09-26 17:00:00 25.8 11 Este 18 Este 0 1016.9 -1.2 63
2019-09-26 16:00:00 25.8 13 Este 21 Este 0 1017.4 -1.2 62
2019-09-26 15:00:00 26.8 12 Este 20 Este 0 1017.6 -1.2 57
2019-09-26 14:00:00 25.9 12 Este 22 Este 0 1018.1 -0.3 60
2019-09-26 13:00:00 25.5 13 Este 23 Este 0 1018.6 1 62
2019-09-26 12:00:00 25.9 10 Este 19 Este 0 1018.8 1.7 60
2019-09-26 11:00:00 23.8 3 Sudoeste 11 Sudoeste 0 1018.4 2.1 69
2019-09-26 10:00:00 22.6 5 Sudoeste 14 Oeste 0 1017.6 1.7 69
2019-09-26 09:00:00 20.7 6 Oeste 11 Oeste 0 1017.1 1.6 76
2019-09-26 08:00:00 20.1 3 Oeste 9 Nordeste 0 1016.3 1.1 75
2019-09-26 07:00:00 21.2 4 Nordeste 16 Nordeste 0 1015.9 1 73
2019-09-26 06:00:00 21.7 8 Nordeste 21 Nordeste 0 1015.5 0.8 56
2019-09-26 05:00:00 19.5 8 Nordeste 19 Nordeste 0 1015.2 0.4 43
2019-09-26 04:00:00 19.1 3 Norte 7 Nordeste 0 1014.9 0.2 53
2019-09-26 03:00:00 19.5 3 Este 4 Este 0 1014.7 0 60
2019-09-26 02:00:00 20.2 2 Oeste 7 Sudoeste 0 1014.8 0.6 61
2019-09-26 01:00:00 21.1 0 Calma 6 Norte 0 1014.7 0.9 55
2019-09-26 00:00:00 21.7 2 Oeste 6 Este 0 1014.7 1.3 64
2019-09-25 23:00:00 22.7 3 Nordeste 6 Nordeste 0 1014.2 1.2 60
2019-09-25 22:00:00 23.9 3 Oeste 10 Nordeste 0 1013.8 1 53
2019-09-25 21:00:00 24.2 7 Nordeste 15 Este 0 1013.4 0.8 54
2019-09-25 20:00:00 29.6 7 Este 26 Oeste 0 1013 0.5 36
2019-09-25 19:00:00 34.2 11 Oeste 32 Oeste 0 1012.8 0 15
2019-09-25 18:00:00 -- 17 Oeste 42 Oeste 0 1012.6 -1 13
2019-09-25 17:00:00 -- 21 Oeste 42 Sudoeste 0 1012.5 -2 12
2019-09-25 16:00:00 -- 15 Oeste 40 Oeste 0 1012.8 -2.4 13
2019-09-25 15:00:00 34.5 14 Oeste 32 Sudoeste 0 1013.6 -2.1 17
2019-09-25 14:00:00 30.6 9 Este 24 Nordeste 0 1014.5 -1.1 36
2019-09-25 13:00:00 28 13 Este 21 Este 0 1015.2 0.1 42
2019-09-25 12:00:00 28.9 8 Este 15 Este 0 1015.7 0.8 39
2019-09-25 11:00:00 27.9 6 Nordeste 13 Este 0 1015.6 1 42
2019-09-25 10:00:00 24.6 3 Noroeste 10 Este 0 1015.1 0.5 46
2019-09-25 09:00:00 21.9 2 Sudeste 7 Nordeste 0 1014.9 0.4 53
2019-09-25 08:00:00 20.6 3 Noroeste 11 Sudoeste 0 1014.6 0.3 54
2019-09-25 07:00:00 20.8 4 Noroeste 9 Noroeste 0 1014.6 0.1 48
2019-09-25 06:00:00 19.5 2 Sur 4 Noroeste 0 1014.5 -0.3 55
2019-09-25 05:00:00 19.6 0 Calma 5 Oeste 0 1014.3 -0.6 53
2019-09-25 04:00:00 20.2 2 Norte 6 Oeste 0 1014.5 -0.8 55
2019-09-25 03:00:00 20.5 3 Oeste 6 Nordeste 0 1014.8 -0.8 53
2019-09-25 02:00:00 20.4 3 Noroeste 8 Oeste 0 1014.9 -0.9 54
2019-09-25 01:00:00 20.1 3 Nordeste 8 Noroeste 0 1015.3 -0.4 58
2019-09-25 00:00:00 20 2 Norte 6 Norte 0 1015.6 0.1 66
2019-09-24 23:00:00 20.9 3 Este 5 Nordeste 0 1015.8 0.3 70
2019-09-24 22:00:00 21.4 2 Sudoeste 5 Este 0 1015.7 0.2 69
2019-09-24 21:00:00 22.3 4 Este 7 Este 0 1015.5 -0.5 61
2019-09-24 20:00:00 23.5 4 Este 8 Este 0 1015.5 -0.8 52
2019-09-24 19:00:00 25.8 5 Este 9 Sudeste 0 1015.5 -1.5 43
2019-09-24 18:00:00 27.4 4 Sur 10 Sudoeste 0 1016 -1.5 35
2019-09-24 17:00:00 27.1 7 Sudoeste 14 Oeste 0 1016.3 -2.2 47
2019-09-24 16:00:00 27.5 8 Sudoeste 15 Sudoeste 0 1017 -2.1 50
2019-09-24 15:00:00 28 8 Sudoeste 12 Sudoeste 0 1017.5 -1.8 47
2019-09-24 14:00:00 27 5 Sudoeste 11 Sudoeste 0 1018.5 -1 48
2019-09-24 13:00:00 26.7 5 Sudoeste 12 Sur 0 1019.1 0.2 50
2019-09-24 12:00:00 25.8 5 Sudoeste 9 Sur 0 1019.3 0.6 57
2019-09-24 11:00:00 24.2 3 Sur 8 Sudoeste 0 1019.5 1.1 57
2019-09-24 10:00:00 22.3 5 Sudoeste 9 Sudoeste 0 1018.9 0.6 63
2019-09-24 09:00:00 19.9 0 Calma 6 Noroeste 0 1018.7 0.6 65
2019-09-24 08:00:00 18.4 2 Noroeste 5 Noroeste 0 1018.4 0.3 66
2019-09-24 07:00:00 17.7 2 Noroeste 5 Noroeste 0 1018.3 0 59
2019-09-24 06:00:00 17.6 2 Noroeste 4 Noroeste 0 1018.1 -0.6 60
2019-09-24 05:00:00 18.1 0 Calma 6 Nordeste 0 1018.1 -0.7 58
2019-09-24 04:00:00 18.5 0 Calma 3 Oeste 0 1018.3 -0.6 61
2019-09-24 03:00:00 19.6 0 Calma 10 Nordeste 0 1018.7 -0.4 58
2019-09-24 02:00:00 20.1 3 Norte 10 Nordeste 0 1018.8 -0.1 52
2019-09-24 01:00:00 19.8 3 Norte 8 Nordeste 0 1018.9 0.4 53
2019-09-24 00:00:00 19.8 4 Nordeste 7 Nordeste 0 1019.1 1 56
2019-09-23 23:00:00 21.6 3 Sudeste 6 Sudeste 0 1018.9 1.1 59
2019-09-23 22:00:00 21.6 2 Nordeste 5 Sudoeste 0 1018.5 0.8 53
2019-09-23 21:00:00 23 3 Sudoeste 10 Sudoeste 0 1018.1 0.4 42
2019-09-23 20:00:00 24.9 6 Oeste 10 Oeste 0 1017.8 0.3 35
2019-09-23 19:00:00 26.5 4 Sudoeste 8 Sudoeste 0 1017.7 -0.2 37
2019-09-23 18:00:00 26.5 4 Sudoeste 8 Sudeste 0 1017.7 -0.4 42
2019-09-23 17:00:00 26.7 4 Sudeste 9 Sudeste 0 1017.5 -0.6 44
2019-09-23 16:00:00 26.7 4 Sudeste 9 Sudoeste 0 1017.9 -0.6 39
2019-09-23 15:00:00 27.8 5 Sudoeste 11 Sudoeste 0 1018.1 -0.5 44
2019-09-23 14:00:00 26.9 8 Sudoeste 14 Sudoeste 0 1018.1 -0.5 47
2019-09-23 13:00:00 26.5 5 Sudoeste 10 Sudoeste 0 1018.5 0.5 46
2019-09-23 12:00:00 25.5 6 Sudoeste 9 Sudoeste 0 1018.6 1.2 49
2019-09-23 11:00:00 24.2 4 Sudeste 9 Sudeste 0 1018.6 1.6 45
2019-09-23 10:00:00 21.6 3 Sudeste 7 Este 0 1018 1.5 51
2019-09-23 09:00:00 18.2 3 Oeste 5 Noroeste 0 1017.4 1.3 56
2019-09-23 08:00:00 16.9 3 Noroeste 5 Norte 0 1017 1.2 57
2019-09-23 07:00:00 17.2 2 Noroeste 4 Norte 0 1016.5 0.8 58
2019-09-23 06:00:00 17.4 2 Noroeste 5 Noroeste 0 1016.1 0 53
2019-09-23 05:00:00 18.3 2 Sudoeste 6 Noroeste 0 1015.8 -0.4 50
2019-09-23 04:00:00 17.8 2 Norte 4 Nordeste 0 1015.7 -0.7 55
2019-09-23 03:00:00 19.5 3 Este 6 Noroeste 0 1016.1 -0.2 63
2019-09-23 02:00:00 20.6 4 Noroeste 8 Noroeste 0 1016.2 0.2 48
2019-09-23 01:00:00 19.7 3 Noroeste 6 Sudoeste 0 1016.4 0.9 57
2019-09-23 00:00:00 20.8 3 Norte 8 Sur 0 1016.3 1.6 53
2019-09-22 23:00:00 21.6 2 Norte 8 Sur 0 1016 1.7 45
2019-09-22 22:00:00 23 5 Sudoeste 26 Oeste 0 1015.5 1.4 41
2019-09-22 21:00:00 24.7 9 Oeste 24 Oeste 0 1014.7 0.6 34
2019-09-22 20:00:00 26.1 12 Oeste 30 Noroeste 0 1014.3 0.4 31
2019-09-22 19:00:00 27.8 15 Oeste 37 Oeste 0 1014.1 0 25
2019-09-22 18:00:00 29.6 18 Sudoeste 36 Sudoeste 0 1014.1 -0.2 23
2019-09-22 17:00:00 29.2 20 Sudoeste 42 Sudoeste 0 1013.9 -1 28
2019-09-22 16:00:00 29.1 22 Oeste 40 Sudoeste 0 1014.1 -0.8 33
2019-09-22 15:00:00 29.4 10 Oeste 44 Sudoeste 0 1014.3 -1 37
2019-09-22 14:00:00 26.5 21 Oeste 37 Sudoeste 0 1014.9 -0.2 47
2019-09-22 13:00:00 26.9 21 Sudoeste 37 Sudoeste 0 1014.9 0 52
2019-09-22 12:00:00 24.5 16 Oeste 30 Oeste 0 1015.3 1.1 61
2019-09-22 11:00:00 24.2 15 Oeste 30 Oeste 0 1015.1 1.3 60
2019-09-22 10:00:00 23.6 14 Oeste 28 Oeste 0 1014.9 1.5 63
2019-09-22 09:00:00 21.9 13 Sudoeste 22 Oeste 0 1014.2 1.1 69
2019-09-22 08:00:00 21.5 12 Sudoeste 24 Sudoeste 0 1013.8 0.8 69
2019-09-22 07:00:00 21.6 13 Sudoeste 27 Sudoeste 0 1013.4 0.1 67
2019-09-22 06:00:00 21.6 17 Sudoeste 31 Sudoeste 0 1013.1 -0.5 68
2019-09-22 05:00:00 21.8 12 Oeste 21 Oeste 0 1013 -0.5 64
2019-09-22 04:00:00 21.9 10 Oeste 20 Noroeste 0 1013.3 -0.3 62
2019-09-22 03:00:00 21.6 8 Sudoeste 17 Sudoeste 0 1013.6 -0.1 61
2019-09-22 02:00:00 22 12 Sudoeste 21 Sur 0 1013.5 0 63
2019-09-22 01:00:00 21.8 8 Oeste 13 Sudoeste 0 1013.6 0.4 68
2019-09-22 00:00:00 21.6 2 Oeste 6 Sur 0 1013.7 1 75
2019-09-21 23:00:00 21.7 3 Nordeste 9 Nordeste 0 1013.5 1 71
2019-09-21 22:00:00 22.2 6 Este 10 Este 0 1013.2 0.8 71
2019-09-21 21:00:00 22.5 4 Nordeste 10 Este 0 1012.7 0.2 68
2019-09-21 20:00:00 23.4 7 Este 11 Este 0 1012.5 0 66
2019-09-21 19:00:00 24.3 4 Este 9 Este 0 1012.4 -0.5 61
2019-09-21 18:00:00 25.1 4 Este 9 Sudeste 0 1012.5 -0.6 57
2019-09-21 17:00:00 26.6 4 Sudoeste 14 Sudoeste 0 1012.5 -1.2 51
2019-09-21 16:00:00 27.4 10 Sudoeste 14 Sudoeste 0 1012.9 -1.1 51
2019-09-21 15:00:00 26.9 8 Sudoeste 13 Sudoeste 0 1013.1 -1.1 54
2019-09-21 14:00:00 26.9 6 Sudoeste 14 Sur 0 1013.7 -0.4 56
2019-09-21 13:00:00 26.3 8 Sudoeste 14 Sur 0 1014 0.5 61
2019-09-21 12:00:00 24 4 Sudeste 9 Este 0 1014.2 1.7 72
2019-09-21 11:00:00 22.8 2 Este 6 Sudoeste 0 1014.1 2 77
2019-09-21 10:00:00 22.1 2 Sudoeste 7 Sudeste 0 1013.5 1.4 80
2019-09-21 09:00:00 21.6 3 Este 6 Este 0 1012.5 0.1 82
2019-09-21 08:00:00 21.4 2 Norte 6 Oeste 0 1012.1 0 81
2019-09-21 07:00:00 21.3 2 Nordeste 7 Oeste 0 1012.1 -0.2 81
2019-09-21 06:00:00 21.8 4 Noroeste 11 Oeste 0 1012.4 -0.5 82
2019-09-21 05:00:00 21.6 3 Oeste 5 Oeste 0 1012.1 -1.2 81
2019-09-21 04:00:00 22.3 3 Oeste 8 Oeste 0 1012.3 -1.4 81
2019-09-21 03:00:00 22.8 5 Oeste 11 Sudoeste 0 1012.9 -1.1 79
2019-09-21 02:00:00 22.8 2 Nordeste 10 Nordeste 0 1013.3 -0.7 78
2019-09-21 01:00:00 22.9 4 Nordeste 10 Este 0 1013.7 -0.1 78
2019-09-21 00:00:00 22.8 5 Nordeste 9 Este 0 1014 0.5 79
2019-09-20 23:00:00 22.9 5 Nordeste 13 Este 0 1014 0.7 78
2019-09-20 22:00:00 23 6 Nordeste 11 Este 0 1013.8 1 77
2019-09-20 21:00:00 23.3 3 Nordeste 10 Nordeste 0 1013.5 0.4 76
2019-09-20 20:00:00 23.9 7 Este 18 Este 0 1013.3 -0.4 75
2019-09-20 19:00:00 24.3 10 Nordeste 18 Nordeste 0 1012.8 -0.8 74
2019-09-20 18:00:00 24.5 13 Este 21 Este 0 1013.1 -0.6 73
2019-09-20 17:00:00 25 10 Este 22 Este 0 1013.7 -0.7 70
2019-09-20 16:00:00 24.7 12 Este 27 Este 0 1013.6 -1 73
2019-09-20 15:00:00 24.8 15 Este 27 Este 0 1013.7 -1.2 73
2019-09-20 14:00:00 25.2 16 Este 29 Este 0 1014.4 -0.4 71
2019-09-20 13:00:00 24.9 14 Este 23 Este 0 1014.6 0 69
2019-09-20 12:00:00 25.5 13 Este 19 Este 0 1014.9 0.8 67
2019-09-20 11:00:00 25.7 13 Este 22 Nordeste 0 1014.8 1 63
2019-09-20 10:00:00 24.1 10 Este 19 Nordeste 0 1014.6 1.3 68
2019-09-20 09:00:00 23.1 8 Nordeste 17 Nordeste 0 1014.1 0.4 70
2019-09-20 08:00:00 22.7 6 Nordeste 18 Nordeste 0 1013.8 -0.4 70
2019-09-20 07:00:00 22.2 7 Nordeste 16 Este 0 1013.3 -1.4 73
2019-09-20 06:00:00 22.2 8 Nordeste 22 Nordeste 0 1013.7 -1.2 71
2019-09-20 05:00:00 22.1 10 Nordeste 23 Nordeste 0 1014.2 -0.9 73
2019-09-20 04:00:00 21.9 8 Nordeste 18 Este 0 1014.7 -0.5 69
2019-09-20 03:00:00 21.7 7 Nordeste 17 Este 0 1014.9 -0.5 69
2019-09-20 02:00:00 21.6 6 Nordeste 17 Nordeste 0 1015.1 0.2 76
2019-09-20 01:00:00 22.2 8 Nordeste 16 Nordeste 0 1015.2 0.6 79
2019-09-20 00:00:00 22.1 6 Nordeste 13 Nordeste 0 1015.4 1.4 80
2019-09-19 23:00:00 22.1 5 Nordeste 9 Este 0 1014.9 0.9 79
2019-09-19 22:00:00 22.2 3 Este 5 Sudeste 0 1014.6 0.4 76
2019-09-19 21:00:00 22.8 3 Sudeste 5 Sudeste 0 1014 -0.1 73
2019-09-19 20:00:00 23.8 3 Sudeste 8 Este 0 1014 -0.2 69
2019-09-19 19:00:00 25.2 4 Este 10 Sudeste 0 1014.2 -0.2 62
2019-09-19 18:00:00 25.9 5 Sudeste 10 Sudeste 0 1014.1 -0.8 58
2019-09-19 17:00:00 26.4 5 Sudeste 13 Este 0 1014.2 -1 57
2019-09-19 16:00:00 26.6 8 Este 13 Este 0 1014.4 -1.5 56
2019-09-19 15:00:00 27.1 6 Sudeste 11 Sudeste 0 1014.9 -0.8 52
2019-09-19 14:00:00 27.1 5 Sudeste 12 Sur 0 1015.2 -0.6 52
2019-09-19 13:00:00 27.4 5 Sur 10 Sudeste 0 1015.9 0.5 54
2019-09-19 12:00:00 27.1 5 Sur 10 Sur 0 1015.7 0.6 55
2019-09-19 11:00:00 25.2 4 Sur 8 Sur 0 1015.8 1.1 62
2019-09-19 10:00:00 23 3 Sur 8 Sudoeste 0 1015.4 0.9 69
2019-09-19 09:00:00 21 4 Oeste 7 Oeste 0 1015.1 0.6 76
2019-09-19 08:00:00 20 0 Calma 5 Noroeste 0 1014.7 0.4 75
2019-09-19 07:00:00 20.6 3 Noroeste 6 Oeste 0 1014.5 0 74
2019-09-19 06:00:00 20.5 2 Norte 8 Nordeste 0 1014.5 -0.2 72
2019-09-19 05:00:00 20.1 2 Noroeste 5 Nordeste 0 1014.3 -0.4 72
2019-09-19 04:00:00 20.1 0 Calma 6 Oeste 0 1014.5 -0.3 72
2019-09-19 03:00:00 20.6 2 Sudoeste 4 Sudoeste 0 1014.7 0.1 72
2019-09-19 02:00:00 20.9 2 Norte 6 Nordeste 0 1014.7 0.2 68
2019-09-19 01:00:00 21.6 3 Sudoeste 8 Sudoeste 0 1014.8 0.6 68
2019-09-19 00:00:00 22.1 2 Norte 9 Nordeste 0 1014.6 0.6 65
2019-09-18 23:00:00 22.2 4 Nordeste 9 Nordeste 0 1014.5 0.8 69
2019-09-18 22:00:00 23 4 Nordeste 7 Sudoeste 0 1014.2 0.6 72
2019-09-18 21:00:00 23.9 4 Sudoeste 7 Sudoeste 0 1014 0.4 70
2019-09-18 20:00:00 25.4 5 Este 14 Este 0 1013.7 -0.2 63
2019-09-18 19:00:00 26.3 7 Este 14 Este 0 1013.6 -0.7 63
2019-09-18 18:00:00 27.7 6 Este 11 Este 0 1013.6 -1.2 52
2019-09-18 17:00:00 28.3 4 Sur 9 Sur 0 1013.9 -1.1 54
2019-09-18 16:00:00 28.7 5 Sudoeste 13 Sur 0 1014.3 -0.8 52
2019-09-18 15:00:00 29.2 5 Sudoeste 15 Sur 0 1014.8 -0.5 52
2019-09-18 14:00:00 27.6 8 Sudoeste 21 Sudoeste 0 1015 -0.2 57
2019-09-18 13:00:00 27.3 13 Sudoeste 22 Sur 0 1015.1 0 58
2019-09-18 12:00:00 26.9 9 Sur 16 Sur 0 1015.3 0.6 60
2019-09-18 11:00:00 25.9 8 Sudoeste 14 Sur 0 1015.2 0.9 62
2019-09-18 10:00:00 23.5 6 Oeste 12 Sudoeste 0 1015.1 1.1 68
2019-09-18 09:00:00 21.1 4 Oeste 7 Oeste 0 1014.7 0.7 79
2019-09-18 08:00:00 20.6 3 Oeste 9 Oeste 0 1014.3 0.2 80
2019-09-18 07:00:00 20.7 0 Calma 5 Noroeste 0 1014 -0.2 80
2019-09-18 06:00:00 21.2 2 Nordeste 5 Nordeste 0 1014 -0.5 80
2019-09-18 05:00:00 21.5 2 Este 5 Sudoeste 0 1014.1 -0.5 81
2019-09-18 04:00:00 21 2 Noroeste 6 Oeste 0 1014.2 -0.7 80
2019-09-18 03:00:00 20.7 3 Oeste 5 Oeste 0 1014.5 -0.4 80
2019-09-18 02:00:00 20.9 3 Sudoeste 5 Sudoeste 0 1014.6 0.2 78
2019-09-18 01:00:00 21.5 0 Calma 4 Oeste 0 1014.9 1.1 79
2019-09-18 00:00:00 22.1 0 Calma 3 Sudoeste 0 1014.9 1.4 79
2019-09-17 23:00:00 22.4 3 Sudoeste 5 Este 0 1014.4 0.9 77
2019-09-17 22:00:00 22.9 4 Este 9 Este 0 1013.8 0 75
2019-09-17 21:00:00 23.6 5 Nordeste 10 Este 0 1013.5 -0.6 73